< < Back
Terminal Aerodrome Forecast


Current Version              Previous Versions:   1  2  3  4  5  6  7  8  9  

Terminal Aerodrome Forecast

640
FTUS44 KMRX 231635 AAA
TAFTYS
TAF AMD
KTYS 231635Z 2317/2412 06008KT P6SM SCT025 OVC070 WS020/15050KT
      TEMPO 2317/2319 3SM -RA BR BKN025
     FM231900 07010KT 4SM -RA BR OVC030 WS020/17050KT
     FM232100 18009KT 3SM -RA BR OVC035
     FM240200 21012KT 5SM -RA BR BKN035
     FM240700 22014KT P6SM VCSH BKN025=

Latest METAR

829
SAUS80 KWBC 231800 RRG
MTRTYS
METAR KTYS 231753Z COR 00000KT 7SM FEW070 OVC085 10/07 A2985 RMK AO2
SLP109 P0002 60002 T01000072 10100 20072 58046


USA.gov is the U.S. government's official web portal to all federal, state and local government web resources and services.